Time;durP1;ratioP1;P1;durP2;ratioP2;P2;SDS_P1;SDS_P2;PMS_P1;PMS_P2;Temp;Humidity;BMP_temperature;BMP_pressure;BME280_temperature;BME280_humidity;BME280_pressure;Samples;Min_cycle;Max_cycle;Signal;HPM_P1;HPM_P2
2021/06/22 00:02:19;;;;;;;2.87;2.00;;;19.60;99.90;;;;;;5048519;28;20626;-84
2021/06/22 00:04:44;;;;;;;2.70;2.20;;;19.60;99.90;;;;;;5047544;28;20577;-84
2021/06/22 00:07:14;;;;;;;2.43;1.97;;;19.60;99.90;;;;;;5047287;28;20209;-84
2021/06/22 00:09:41;;;;;;;2.23;2.03;;;19.60;99.90;;;;;;5049632;28;20182;-84
2021/06/22 00:12:08;;;;;;;2.93;2.47;;;19.60;99.90;;;;;;5047069;28;20626;-83
2021/06/22 00:14:34;;;;;;;2.20;2.00;;;19.50;99.90;;;;;;5047902;28;21000;-83
2021/06/22 00:16:59;;;;;;;2.77;2.57;;;19.60;99.90;;;;;;5048640;28;20591;-83
2021/06/22 00:19:25;;;;;;;3.03;2.20;;;19.50;99.90;;;;;;5052773;28;20209;-83
2021/06/22 00:21:51;;;;;;;2.63;2.10;;;19.50;99.90;;;;;;5051840;28;20190;-83
2021/06/22 00:24:17;;;;;;;2.00;1.60;;;19.50;99.90;;;;;;5046474;28;20177;-83
2021/06/22 00:26:42;;;;;;;1.77;1.67;;;19.50;99.90;;;;;;5024006;28;20565;-82
2021/06/22 00:29:08;;;;;;;1.80;1.20;;;19.50;99.90;;;;;;5041329;28;20177;-84
2021/06/22 00:31:34;;;;;;;1.90;1.70;;;19.50;99.90;;;;;;5005998;28;20212;-84
2021/06/22 00:34:00;;;;;;;1.90;1.70;;;19.50;99.90;;;;;;5028585;28;20176;-83
2021/06/22 00:36:25;;;;;;;1.70;1.47;;;19.50;99.90;;;;;;5038065;28;20165;-84
2021/06/22 00:38:54;;;;;;;1.63;1.40;;;19.40;99.90;;;;;;5036372;28;20201;-85
2021/06/22 00:41:21;;;;;;;2.23;1.70;;;19.50;99.90;;;;;;5038972;28;20609;-85
2021/06/22 00:43:47;;;;;;;2.70;1.50;;;19.50;99.90;;;;;;5028197;28;20580;-84
2021/06/22 00:46:14;;;;;;;2.30;1.50;;;19.50;99.90;;;;;;5047764;28;20619;-84
2021/06/22 00:48:40;;;;;;;2.50;1.40;;;19.40;99.90;;;;;;5048247;28;20584;-84
2021/06/22 00:51:07;;;;;;;1.90;1.80;;;19.40;99.90;;;;;;5047004;28;20599;-83
2021/06/22 00:53:35;;;;;;;1.90;1.40;;;19.40;99.90;;;;;;5045347;28;20633;-83
2021/06/22 00:56:01;;;;;;;1.93;1.57;;;19.30;99.90;;;;;;5028819;28;20592;-84
2021/06/22 00:58:38;;;;;;;2.10;1.90;;;19.30;99.90;;;;;;5046615;28;20643;-84
2021/06/22 01:01:04;;;;;;;1.93;1.53;;;19.30;99.90;;;;;;5040099;28;21325;-83
2021/06/22 01:03:29;;;;;;;3.00;1.87;;;19.30;99.90;;;;;;5020823;28;20580;-83
2021/06/22 01:05:59;;;;;;;3.60;1.83;;;19.30;99.90;;;;;;5042798;28;20170;-84
2021/06/22 01:08:27;;;;;;;1.60;1.43;;;19.30;99.90;;;;;;5025713;28;21184;-84
2021/06/22 01:10:53;;;;;;;1.90;1.37;;;19.30;99.90;;;;;;5025251;28;20596;-84
2021/06/22 01:13:19;;;;;;;3.73;1.80;;;19.30;99.90;;;;;;5019196;28;20604;-84
2021/06/22 01:15:45;;;;;;;2.10;1.90;;;19.30;99.90;;;;;;5036085;28;21139;-83
2021/06/22 01:18:12;;;;;;;2.50;1.70;;;19.30;99.90;;;;;;5042430;28;20580;-83
2021/06/22 01:21:05;;;;;;;2.30;2.00;;;19.30;99.90;;;;;;5028975;28;20687;-84
2021/06/22 01:23:39;;;;;;;2.30;1.73;;;19.30;99.90;;;;;;5027998;28;20556;-83
2021/06/22 01:26:04;;;;;;;2.10;1.40;;;19.20;99.90;;;;;;5044608;28;20561;-84
2021/06/22 01:28:32;;;;;;;3.00;1.63;;;19.20;99.90;;;;;;5027087;28;20205;-84
2021/06/22 01:31:06;;;;;;;1.70;1.57;;;19.20;99.90;;;;;;5042109;28;20612;-84
2021/06/22 01:33:32;;;;;;;7.07;2.13;;;19.20;99.90;;;;;;5025153;28;21202;-83
2021/06/22 01:35:58;;;;;;;2.00;1.50;;;19.20;99.90;;;;;;5040806;28;20615;-83
2021/06/22 01:38:24;;;;;;;2.83;1.83;;;19.10;99.90;;;;;;5040316;28;20592;-84
2021/06/22 01:40:51;;;;;;;2.50;1.30;;;19.10;99.90;;;;;;5041175;28;20213;-83
2021/06/22 01:43:24;;;;;;;2.20;1.50;;;19.10;99.90;;;;;;5037166;28;20565;-84
2021/06/22 01:45:50;;;;;;;2.20;1.10;;;19.00;99.90;;;;;;5017999;28;20906;-84
2021/06/22 01:48:17;;;;;;;1.67;1.57;;;19.00;99.90;;;;;;5018013;28;20638;-85
2021/06/22 01:50:45;;;;;;;3.10;1.23;;;18.90;99.90;;;;;;5016840;28;20607;-84
2021/06/22 01:53:14;;;;;;;1.50;1.10;;;18.90;99.90;;;;;;5016725;28;20580;-84
2021/06/22 01:55:43;;;;;;;2.33;1.00;;;18.90;99.90;;;;;;5037133;28;21215;-84
2021/06/22 01:58:14;;;;;;;1.40;1.10;;;18.80;99.90;;;;;;5054241;28;20656;-84
2021/06/22 02:00:58;;;;;;;1.70;0.90;;;18.80;99.90;;;;;;5037234;28;20596;-84
2021/06/22 02:03:31;;;;;;;1.40;0.80;;;18.80;99.90;;;;;;5027520;28;20579;-84
2021/06/22 02:05:57;;;;;;;1.20;0.73;;;18.80;99.90;;;;;;5049995;28;20583;-84
2021/06/22 02:08:26;;;;;;;1.87;1.20;;;18.80;99.90;;;;;;5049082;28;20565;-83
2021/06/22 02:10:52;;;;;;;1.40;0.80;;;18.80;99.90;;;;;;5042066;28;20964;-85
2021/06/22 02:13:37;;;;;;;1.47;0.80;;;18.70;99.90;;;;;;5035816;28;20161;-83
2021/06/22 02:16:09;;;;;;;2.43;1.07;;;18.80;99.90;;;;;;5017640;28;20572;-84
2021/06/22 02:18:34;;;;;;;2.10;1.00;;;18.70;99.90;;;;;;5022933;28;20747;-83
2021/06/22 02:21:04;;;;;;;1.57;1.03;;;18.70;99.90;;;;;;5022704;28;20659;-83
2021/06/22 02:23:44;;;;;;;2.90;1.43;;;18.70;99.90;;;;;;5037086;28;20572;-82
2021/06/22 02:26:12;;;;;;;1.40;1.13;;;18.60;99.90;;;;;;5037789;28;20944;-84
2021/06/22 02:28:39;;;;;;;1.57;1.37;;;18.60;99.90;;;;;;5017717;28;20619;-82
2021/06/22 02:31:10;;;;;;;2.27;1.20;;;18.60;99.90;;;;;;5033009;28;20674;-83
2021/06/22 02:33:37;;;;;;;1.67;1.20;;;18.60;99.90;;;;;;5016933;28;20679;-83
2021/06/22 02:36:05;;;;;;;3.87;1.50;;;18.60;99.90;;;;;;5016535;28;20680;-83
2021/06/22 02:38:40;;;;;;;2.43;1.60;;;18.60;99.90;;;;;;5018848;28;20620;-83
2021/06/22 02:41:07;;;;;;;2.93;2.63;;;18.60;99.90;;;;;;5024623;28;20614;-83
2021/06/22 02:43:36;;;;;;;4.47;3.03;;;18.60;99.90;;;;;;5010599;28;20671;-84
2021/06/22 02:46:06;;;;;;;4.20;3.20;;;18.60;99.90;;;;;;5026825;28;20596;-83
2021/06/22 02:48:33;;;;;;;4.40;4.00;;;18.70;99.90;;;;;;5044197;28;20583;-83
2021/06/22 02:50:59;;;;;;;3.90;3.50;;;18.70;99.90;;;;;;5026371;28;20608;-83
2021/06/22 02:53:31;;;;;;;3.83;3.43;;;18.70;99.90;;;;;;5012390;28;20204;-84
2021/06/22 02:55:58;;;;;;;5.63;4.70;;;18.70;99.90;;;;;;5045840;28;20972;-84
2021/06/22 02:58:32;;;;;;;5.53;4.13;;;18.70;99.90;;;;;;5000594;28;20616;-84
2021/06/22 03:00:59;;;;;;;4.47;4.07;;;18.70;99.90;;;;;;5031617;28;20715;-84
2021/06/22 03:03:28;;;;;;;4.77;4.27;;;18.70;99.90;;;;;;4984123;28;20638;-84
2021/06/22 03:06:05;;;;;;;8.83;4.50;;;18.70;99.90;;;;;;5016877;28;20567;-83
2021/06/22 03:08:53;;;;;;;5.77;5.27;;;18.70;99.90;;;;;;5031551;28;20584;-83
2021/06/22 03:11:20;;;;;;;5.53;4.60;;;18.70;99.90;;;;;;5014548;28;20647;-84
2021/06/22 03:13:48;;;;;;;4.80;4.30;;;18.60;99.90;;;;;;5014582;28;20576;-83
2021/06/22 03:16:28;;;;;;;6.37;4.07;;;18.60;99.90;;;;;;5014587;28;20583;-84
2021/06/22 03:18:54;;;;;;;4.50;4.10;;;18.60;99.90;;;;;;5031976;28;20615;-84
2021/06/22 03:21:21;;;;;;;4.83;3.90;;;18.60;99.90;;;;;;4997983;28;20189;-84
2021/06/22 03:23:49;;;;;;;5.90;5.03;;;18.60;99.90;;;;;;5014022;28;20587;-84
2021/06/22 03:26:16;;;;;;;4.20;3.73;;;18.60;99.90;;;;;;5013776;28;20696;-83
2021/06/22 03:28:42;;;;;;;4.70;4.20;;;18.60;99.90;;;;;;5014059;28;20967;-84
2021/06/22 03:31:35;;;;;;;4.60;4.20;;;18.50;99.90;;;;;;5034892;28;20979;-84
2021/06/22 03:34:01;;;;;;;5.47;4.80;;;18.50;99.90;;;;;;5033726;28;20576;-83
2021/06/22 03:36:26;;;;;;;6.63;5.97;;;18.50;99.90;;;;;;5031443;28;20572;-83
2021/06/22 03:38:52;;;;;;;6.10;5.50;;;18.50;99.90;;;;;;5032798;28;20666;-84
2021/06/22 03:41:19;;;;;;;6.80;4.57;;;18.40;99.90;;;;;;5032499;28;20217;-83
2021/06/22 03:43:46;;;;;;;5.40;4.80;;;18.40;99.90;;;;;;5014452;28;20603;-83
2021/06/22 03:46:16;;;;;;;6.77;6.07;;;18.40;99.90;;;;;;5031147;28;20584;-83
2021/06/22 03:48:43;;;;;;;4.90;4.40;;;18.40;99.90;;;;;;5032883;28;20584;-83
2021/06/22 03:51:09;;;;;;;6.00;4.90;;;18.30;99.90;;;;;;5037653;28;20626;-84
2021/06/22 03:53:38;;;;;;;5.33;4.80;;;18.30;99.90;;;;;;5037401;28;20644;-83
2021/06/22 03:56:09;;;;;;;5.30;3.70;;;18.20;99.90;;;;;;5040993;28;20631;-83
2021/06/22 03:58:55;;;;;;;4.20;3.70;;;18.20;99.90;;;;;;5040197;28;20644;-83
2021/06/22 04:01:22;;;;;;;4.83;3.60;;;18.30;99.90;;;;;;5035016;28;20604;-84
2021/06/22 04:03:48;;;;;;;4.10;3.30;;;18.20;99.90;;;;;;5037304;28;21186;-83
2021/06/22 04:06:33;;;;;;;3.70;3.40;;;18.20;99.90;;;;;;5039137;28;20648;-84
2021/06/22 04:09:03;;;;;;;3.47;2.67;;;18.20;99.90;;;;;;5045122;28;20583;-83
2021/06/22 04:11:32;;;;;;;2.80;2.37;;;18.20;99.90;;;;;;5022316;28;20603;-83
2021/06/22 04:13:58;;;;;;;3.03;2.20;;;18.20;99.90;;;;;;5029459;28;20601;-82
2021/06/22 04:16:29;;;;;;;2.90;2.63;;;18.30;99.90;;;;;;5026129;28;20236;-82
2021/06/22 04:18:55;;;;;;;3.23;2.40;;;18.20;99.90;;;;;;5019085;28;21024;-82
2021/06/22 04:21:24;;;;;;;4.20;3.10;;;18.20;99.90;;;;;;5035188;28;20631;-83
2021/06/22 04:23:53;;;;;;;4.73;4.27;;;18.30;99.90;;;;;;5036286;28;20592;-82
2021/06/22 04:26:19;;;;;;;5.47;4.10;;;18.20;99.90;;;;;;5036355;28;21145;-83
2021/06/22 04:28:45;;;;;;;7.57;5.27;;;18.20;99.90;;;;;;5003162;28;20580;-83
2021/06/22 04:31:12;;;;;;;6.10;5.50;;;18.20;99.90;;;;;;5049098;28;20635;-82
2021/06/22 04:33:38;;;;;;;7.03;5.30;;;18.20;99.90;;;;;;5048377;28;20580;-83
2021/06/22 04:36:04;;;;;;;7.53;6.23;;;18.20;99.90;;;;;;5015406;28;20642;-83
2021/06/22 04:38:34;;;;;;;8.17;6.83;;;18.20;99.90;;;;;;5044614;28;20586;-82
2021/06/22 04:40:59;;;;;;;7.10;5.83;;;18.20;99.90;;;;;;5022752;28;21044;-83
2021/06/22 04:43:25;;;;;;;6.40;4.80;;;18.20;99.90;;;;;;5039950;28;20576;-83
2021/06/22 04:45:51;;;;;;;5.90;4.23;;;18.20;99.90;;;;;;5049363;28;20174;-83
2021/06/22 04:48:17;;;;;;;5.13;4.63;;;18.10;99.90;;;;;;5048737;28;20184;-83
2021/06/22 04:50:42;;;;;;;4.40;4.00;;;18.10;99.90;;;;;;5006392;28;20638;-82
2021/06/22 04:53:08;;;;;;;4.40;3.50;;;18.10;99.90;;;;;;5038743;28;20580;-82
2021/06/22 04:55:34;;;;;;;3.13;2.83;;;18.10;99.90;;;;;;5023428;28;20178;-82
2021/06/22 04:58:00;;;;;;;3.10;1.90;;;18.10;99.90;;;;;;5037443;28;20230;-82
2021/06/22 05:00:27;;;;;;;3.87;2.53;;;18.10;99.90;;;;;;5022347;28;20603;-82
2021/06/22 05:02:53;;;;;;;5.10;1.90;;;18.10;99.90;;;;;;5039068;28;20584;-82
2021/06/22 05:05:22;;;;;;;1.70;1.50;;;18.10;99.90;;;;;;5038124;28;20589;-82
2021/06/22 05:07:51;;;;;;;2.27;1.30;;;18.20;99.90;;;;;;5034090;28;20596;-82
2021/06/22 05:10:16;;;;;;;4.47;1.53;;;18.20;99.90;;;;;;5040149;28;20583;-83
2021/06/22 05:12:43;;;;;;;2.90;1.20;;;18.30;99.90;;;;;;5016937;28;20178;-83
2021/06/22 05:15:10;;;;;;;2.70;1.20;;;18.20;99.90;;;;;;5034526;28;20656;-83
2021/06/22 05:17:36;;;;;;;1.70;1.10;;;18.30;99.90;;;;;;5037384;28;21177;-80
2021/06/22 05:20:04;;;;;;;2.07;1.00;;;18.30;99.90;;;;;;5035537;28;20651;-80
2021/06/22 05:22:29;;;;;;;3.00;1.20;;;18.30;99.90;;;;;;5000176;28;20679;-81
2021/06/22 05:24:55;;;;;;;1.80;1.00;;;18.30;99.90;;;;;;5030057;28;21077;-82
2021/06/22 05:27:21;;;;;;;1.40;0.90;;;18.40;99.90;;;;;;5032652;28;20173;-80
2021/06/22 05:29:47;;;;;;;1.70;1.30;;;18.40;99.90;;;;;;5033116;28;20633;-80
2021/06/22 05:32:13;;;;;;;2.23;1.30;;;18.40;99.90;;;;;;5032345;28;20603;-77
2021/06/22 05:34:38;;;;;;;1.73;1.00;;;18.40;99.90;;;;;;5033087;28;20168;-76
2021/06/22 05:37:04;;;;;;;3.07;1.13;;;18.40;99.90;;;;;;5031424;28;20584;-76
2021/06/22 05:39:30;;;;;;;1.70;1.20;;;18.40;99.90;;;;;;5032888;28;20640;-76
2021/06/22 05:41:56;;;;;;;2.20;1.03;;;18.50;99.90;;;;;;5032833;28;20197;-76
2021/06/22 05:44:22;;;;;;;8.53;1.40;;;18.50;99.90;;;;;;5032944;28;20166;-74
2021/06/22 05:46:47;;;;;;;2.40;1.10;;;18.50;99.90;;;;;;5032448;28;20595;-74
2021/06/22 05:49:13;;;;;;;2.90;1.80;;;18.50;99.90;;;;;;5032446;28;20173;-74
2021/06/22 05:51:39;;;;;;;2.10;1.43;;;18.50;99.90;;;;;;5014891;28;20202;-73
2021/06/22 05:54:05;;;;;;;2.13;1.20;;;18.40;99.90;;;;;;5015268;28;20536;-73
2021/06/22 05:56:31;;;;;;;4.47;1.70;;;18.40;99.90;;;;;;5033426;28;20189;-73
2021/06/22 05:58:56;;;;;;;3.90;2.20;;;18.30;99.90;;;;;;5035911;28;20627;-74
2021/06/22 06:01:22;;;;;;;2.17;1.50;;;18.20;99.90;;;;;;5032548;28;20197;-75
2021/06/22 06:03:48;;;;;;;2.70;1.57;;;18.10;99.90;;;;;;5014765;28;20174;-75
2021/06/22 06:06:14;;;;;;;2.60;1.40;;;18.00;99.90;;;;;;5014531;28;20646;-75
2021/06/22 06:08:40;;;;;;;2.73;2.20;;;17.90;99.90;;;;;;5032289;28;20169;-76
2021/06/22 06:11:05;;;;;;;3.00;2.30;;;17.80;99.90;;;;;;5014744;28;20289;-75
2021/06/22 06:13:36;;;;;;;2.37;2.13;;;17.70;99.90;;;;;;5031995;28;20992;-75
2021/06/22 06:16:03;;;;;;;3.10;2.60;;;17.70;99.90;;;;;;5014739;28;21171;-77
2021/06/22 06:18:30;;;;;;;3.90;2.47;;;17.60;99.90;;;;;;5031275;28;20627;-76
2021/06/22 06:20:57;;;;;;;3.80;2.77;;;17.50;99.90;;;;;;5032328;28;20707;-76
2021/06/22 06:23:28;;;;;;;5.00;2.93;;;17.50;99.90;;;;;;5014664;28;20577;-75
2021/06/22 06:25:55;;;;;;;3.00;2.37;;;17.40;99.90;;;;;;5031707;28;21124;-75
2021/06/22 06:28:26;;;;;;;3.37;2.50;;;17.30;99.90;;;;;;5014049;28;21142;-76
2021/06/22 06:30:52;;;;;;;2.47;1.80;;;17.30;99.90;;;;;;5031580;28;20616;-75
2021/06/22 06:33:18;;;;;;;2.50;1.57;;;17.20;99.90;;;;;;5033884;28;20975;-76
2021/06/22 06:35:44;;;;;;;2.57;1.70;;;17.30;99.90;;;;;;5034168;28;20568;-76
2021/06/22 06:38:09;;;;;;;3.67;1.80;;;17.20;99.90;;;;;;5031828;28;20630;-76
2021/06/22 06:40:36;;;;;;;1.90;1.60;;;17.30;99.90;;;;;;5031535;28;20194;-76
2021/06/22 06:43:02;;;;;;;2.57;1.67;;;17.30;99.90;;;;;;5031634;28;20534;-76
2021/06/22 06:45:28;;;;;;;3.07;1.93;;;17.40;99.90;;;;;;5014036;28;20569;-77
2021/06/22 06:47:54;;;;;;;4.20;2.03;;;17.40;99.90;;;;;;5031387;28;20579;-75
2021/06/22 06:50:20;;;;;;;2.50;1.50;;;17.40;99.90;;;;;;5013982;28;20257;-76
2021/06/22 06:52:46;;;;;;;3.13;1.77;;;17.50;99.90;;;;;;5031660;28;20166;-75
2021/06/22 06:55:25;;;;;;;3.00;1.70;;;17.50;99.90;;;;;;5031560;28;20680;-77
2021/06/22 06:57:54;;;;;;;1.87;1.40;;;17.60;99.90;;;;;;5031745;28;20599;-78
2021/06/22 07:00:21;;;;;;;4.33;2.00;;;17.70;99.90;;;;;;5031459;28;20715;-77
2021/06/22 07:02:47;;;;;;;3.70;2.27;;;17.80;99.90;;;;;;5031597;28;20569;-77
2021/06/22 07:05:13;;;;;;;2.63;1.50;;;17.90;99.90;;;;;;5031541;28;20572;-78
2021/06/22 07:07:39;;;;;;;2.33;1.60;;;17.90;99.90;;;;;;5013819;28;20615;-77
2021/06/22 07:10:05;;;;;;;3.10;2.03;;;18.00;99.90;;;;;;5034179;28;20244;-75
2021/06/22 07:12:31;;;;;;;3.03;1.80;;;18.00;99.90;;;;;;5032123;28;20239;-76
2021/06/22 07:14:57;;;;;;;2.57;2.00;;;18.10;99.90;;;;;;5030888;28;20568;-75
2021/06/22 07:17:22;;;;;;;2.67;1.80;;;18.10;99.90;;;;;;5031040;28;20265;-72
2021/06/22 07:19:48;;;;;;;2.27;1.53;;;18.20;99.90;;;;;;5014168;28;20205;-74
2021/06/22 07:22:14;;;;;;;2.40;2.20;;;18.20;99.90;;;;;;5031303;28;20645;-75
2021/06/22 07:24:39;;;;;;;4.27;2.30;;;18.20;99.90;;;;;;5031311;28;20162;-74
2021/06/22 07:27:06;;;;;;;2.57;1.80;;;18.30;99.90;;;;;;5030305;28;20227;-75
2021/06/22 07:29:34;;;;;;;2.13;1.80;;;18.30;99.90;;;;;;5030084;28;20182;-74
2021/06/22 07:32:00;;;;;;;3.10;2.60;;;18.40;99.90;;;;;;5012558;28;20620;-73
2021/06/22 07:34:26;;;;;;;4.07;2.60;;;18.50;99.90;;;;;;5013620;28;20576;-74
2021/06/22 07:36:52;;;;;;;4.43;2.90;;;18.60;99.90;;;;;;5030818;28;20568;-74
2021/06/22 07:39:18;;;;;;;10.20;3.37;;;18.70;99.90;;;;;;5031198;28;20251;-76
2021/06/22 07:41:44;;;;;;;4.73;2.23;;;18.80;99.90;;;;;;5034015;28;20204;-76
2021/06/22 07:44:10;;;;;;;2.90;2.50;;;18.80;99.90;;;;;;5017619;28;20583;-76
2021/06/22 07:46:35;;;;;;;3.20;2.30;;;18.90;99.90;;;;;;5019725;28;20573;-76
2021/06/22 07:49:01;;;;;;;2.20;1.87;;;18.90;99.90;;;;;;5036618;28;20182;-76
2021/06/22 07:51:29;;;;;;;2.33;2.13;;;19.00;99.90;;;;;;5034925;28;20665;-76
2021/06/22 07:53:57;;;;;;;3.17;1.90;;;19.00;99.90;;;;;;5035025;28;20244;-74
2021/06/22 07:56:23;;;;;;;2.60;2.30;;;19.10;99.90;;;;;;5017295;28;21310;-73
2021/06/22 07:58:50;;;;;;;3.07;2.17;;;19.10;99.90;;;;;;5033821;28;20615;-73
2021/06/22 08:01:17;;;;;;;3.43;1.67;;;19.10;99.90;;;;;;5035214;28;20666;-73
2021/06/22 08:03:50;;;;;;;2.30;1.50;;;19.10;99.90;;;;;;5036021;28;20594;-74
2021/06/22 08:06:16;;;;;;;3.47;1.70;;;19.20;99.90;;;;;;5035787;28;20611;-74
2021/06/22 08:08:42;;;;;;;2.10;1.60;;;19.20;99.90;;;;;;5035831;28;21119;-75
2021/06/22 08:11:08;;;;;;;2.63;1.40;;;19.30;99.90;;;;;;5035744;28;20185;-76
2021/06/22 08:13:40;;;;;;;2.53;1.73;;;19.30;99.90;;;;;;5034672;28;20197;-76
2021/06/22 08:16:06;;;;;;;2.07;1.43;;;19.40;99.90;;;;;;5035675;28;20642;-75
2021/06/22 08:18:33;;;;;;;2.17;1.47;;;19.50;99.90;;;;;;5020457;28;20596;-75
2021/06/22 08:21:00;;;;;;;2.20;1.07;;;19.60;99.90;;;;;;5023532;28;20600;-75
2021/06/22 08:23:26;;;;;;;3.37;1.20;;;19.70;99.90;;;;;;5038675;28;20922;-75
2021/06/22 08:25:53;;;;;;;2.80;1.43;;;19.70;99.90;;;;;;5024747;28;20568;-75
2021/06/22 08:28:19;;;;;;;2.50;1.20;;;19.80;99.90;;;;;;5022826;28;20580;-75
2021/06/22 08:30:46;;;;;;;2.80;1.70;;;19.90;99.90;;;;;;5040210;28;20716;-75
2021/06/22 08:33:12;;;;;;;5.20;1.67;;;20.00;99.90;;;;;;5041554;28;20581;-75
2021/06/22 08:35:40;;;;;;;4.30;2.10;;;20.10;99.90;;;;;;5043539;28;20926;-75
2021/06/22 08:38:08;;;;;;;3.27;2.70;;;20.10;99.90;;;;;;5025811;28;20591;-75
2021/06/22 08:40:36;;;;;;;3.37;3.07;;;20.20;99.90;;;;;;5040816;28;21021;-75
2021/06/22 08:43:02;;;;;;;3.60;1.77;;;20.30;99.90;;;;;;5040494;28;20568;-75
2021/06/22 08:45:28;;;;;;;3.83;2.07;;;20.30;99.90;;;;;;5039980;28;20564;-75
2021/06/22 08:47:54;;;;;;;4.00;1.80;;;20.30;99.90;;;;;;5038815;28;20575;-75
2021/06/22 08:50:21;;;;;;;2.10;1.53;;;20.30;99.90;;;;;;5039396;28;20687;-75
2021/06/22 08:52:47;;;;;;;5.30;2.10;;;20.30;99.90;;;;;;5037819;28;20666;-75
2021/06/22 08:55:32;;;;;;;3.80;1.87;;;20.30;99.90;;;;;;5042005;28;20556;-75
2021/06/22 08:58:02;;;;;;;4.17;2.00;;;20.20;99.90;;;;;;5019146;28;20583;-76
2021/06/22 09:00:30;;;;;;;4.30;1.60;;;20.20;99.90;;;;;;5017843;28;20662;-75
2021/06/22 09:03:02;;;;;;;4.93;2.20;;;20.20;99.90;;;;;;5034302;28;20619;-75
2021/06/22 09:05:28;;;;;;;4.87;1.70;;;20.30;99.90;;;;;;5030706;28;20859;-75
2021/06/22 09:07:54;;;;;;;4.13;1.67;;;20.30;99.90;;;;;;5022295;28;20584;-75
2021/06/22 09:10:32;;;;;;;4.30;1.77;;;20.30;99.90;;;;;;5016693;28;20197;-75
2021/06/22 09:13:10;;;;;;;2.30;1.33;;;20.40;99.90;;;;;;5032768;28;20645;-76
2021/06/22 09:15:40;;;;;;;3.00;1.20;;;20.40;99.90;;;;;;5032095;28;21003;-75
2021/06/22 09:18:31;;;;;;;2.13;1.30;;;20.50;99.90;;;;;;5033632;28;20991;-74
2021/06/22 09:21:00;;;;;;;3.07;1.10;;;20.50;99.90;;;;;;5015427;28;20719;-75
2021/06/22 09:23:38;;;;;;;2.43;1.00;;;20.50;99.90;;;;;;5033283;28;20568;-74
2021/06/22 09:26:17;;;;;;;2.30;1.60;;;20.50;99.90;;;;;;5015258;28;20602;-74
2021/06/22 09:28:44;;;;;;;1.90;1.30;;;20.50;99.90;;;;;;5032137;28;20687;-76
2021/06/22 09:31:15;;;;;;;3.23;2.07;;;20.50;99.90;;;;;;5031715;28;20619;-74
2021/06/22 09:33:50;;;;;;;3.30;1.20;;;20.40;99.90;;;;;;5033037;28;20948;-75
2021/06/22 09:36:26;;;;;;;1.90;1.13;;;20.40;99.90;;;;;;5033141;28;20564;-75
2021/06/22 09:39:01;;;;;;;3.37;1.30;;;20.40;99.90;;;;;;5034935;28;20615;-75
2021/06/22 09:41:35;;;;;;;2.47;1.63;;;20.50;99.90;;;;;;5015435;28;20604;-76
2021/06/22 09:44:05;;;;;;;2.87;1.20;;;20.50;99.90;;;;;;5015066;28;20928;-76
2021/06/22 09:46:32;;;;;;;3.60;2.37;;;20.60;99.90;;;;;;5032622;28;20699;-75
2021/06/22 09:49:00;;;;;;;2.60;1.20;;;20.70;99.90;;;;;;5031304;28;20603;-77
2021/06/22 09:51:58;;;;;;;4.53;3.00;;;20.80;99.90;;;;;;5033279;28;21103;-76
2021/06/22 09:54:44;;;;;;;2.20;1.20;;;20.90;99.90;;;;;;5027348;28;20583;-76
2021/06/22 09:57:17;;;;;;;6.27;1.97;;;21.10;99.90;;;;;;5041404;28;20641;-76
2021/06/22 10:00:10;;;;;;;3.30;1.47;;;21.30;99.90;;;;;;5038161;28;20624;-74
2021/06/22 10:02:51;;;;;;;2.70;1.57;;;21.40;99.90;;;;;;5037999;28;20600;-76
2021/06/22 10:05:17;;;;;;;3.83;1.70;;;21.50;99.90;;;;;;5040541;28;20592;-75
2021/06/22 10:08:22;;;;;;;4.87;1.70;;;21.70;99.90;;;;;;5037977;28;20596;-75
2021/06/22 10:10:48;;;;;;;2.20;1.23;;;21.70;99.90;;;;;;4958366;29;20631;-76
2021/06/22 10:13:40;;;;;;;2.53;1.40;;;21.90;99.90;;;;;;4958036;29;20607;-77
2021/06/22 10:16:19;;;;;;;1.40;1.00;;;22.00;99.90;;;;;;5011218;28;20193;-76
2021/06/22 10:18:46;;;;;;;2.90;1.17;;;22.20;99.90;;;;;;5036595;28;20572;-75
2021/06/22 10:21:12;;;;;;;3.60;1.93;;;22.40;99.90;;;;;;5034462;28;20619;-76
2021/06/22 10:23:38;;;;;;;4.80;1.63;;;22.40;99.90;;;;;;5036159;28;20585;-77
2021/06/22 10:26:04;;;;;;;4.03;1.53;;;22.30;99.90;;;;;;5037649;28;20173;-76
2021/06/22 10:28:29;;;;;;;3.67;2.30;;;22.30;99.90;;;;;;5035999;28;20571;-76
2021/06/22 10:30:56;;;;;;;2.87;1.20;;;22.40;99.90;;;;;;5016056;28;20213;-75
2021/06/22 10:33:21;;;;;;;1.97;1.17;;;22.50;99.90;;;;;;5033115;28;20573;-75
2021/06/22 10:35:47;;;;;;;3.03;1.27;;;22.90;99.90;;;;;;5033544;28;20683;-75
2021/06/22 10:38:16;;;;;;;2.10;1.27;;;23.30;99.90;;;;;;5033633;28;20170;-75
2021/06/22 10:40:42;;;;;;;4.87;1.67;;;23.60;99.90;;;;;;5032221;28;20667;-76
2021/06/22 10:43:10;;;;;;;1.60;1.20;;;23.90;99.90;;;;;;5033696;28;20573;-76
2021/06/22 10:45:57;;;;;;;3.47;1.33;;;24.20;99.90;;;;;;5032429;28;20602;-76
2021/06/22 10:48:22;;;;;;;2.40;1.60;;;24.30;99.90;;;;;;5032496;28;20575;-75
2021/06/22 10:50:51;;;;;;;3.17;1.60;;;24.50;99.90;;;;;;5037720;28;20968;-75
2021/06/22 10:53:40;;;;;;;1.60;0.93;;;24.50;99.90;;;;;;5026614;28;20182;-76
2021/06/22 10:56:14;;;;;;;4.07;1.43;;;24.40;99.90;;;;;;4998157;28;20582;-75
2021/06/22 10:58:40;;;;;;;2.50;1.37;;;24.30;99.90;;;;;;4995076;28;20750;-75
2021/06/22 11:01:07;;;;;;;2.43;1.20;;;24.10;99.90;;;;;;5016552;28;20659;-75
2021/06/22 11:03:34;;;;;;;2.90;1.03;;;24.00;99.90;;;;;;5015305;28;20577;-77
2021/06/22 11:06:23;;;;;;;1.87;1.20;;;23.90;99.90;;;;;;4996831;28;20573;-75
2021/06/22 11:08:49;;;;;;;2.37;1.27;;;23.80;99.90;;;;;;4994659;28;20716;-75
2021/06/22 11:11:17;;;;;;;2.97;1.23;;;23.80;99.90;;;;;;4995464;28;20837;-74
2021/06/22 11:13:52;;;;;;;2.47;1.40;;;23.70;99.90;;;;;;4998491;28;20188;-75
2021/06/22 11:16:18;;;;;;;2.77;1.10;;;23.60;99.90;;;;;;5014698;28;20676;-75
2021/06/22 11:18:56;;;;;;;2.63;1.30;;;23.60;99.90;;;;;;5013787;28;20669;-75
2021/06/22 11:21:48;;;;;;;2.53;1.20;;;23.50;99.30;;;;;;5012409;28;20185;-76
2021/06/22 11:24:21;;;;;;;2.33;1.10;;;23.40;99.90;;;;;;5012206;28;20708;-75
2021/06/22 11:26:47;;;;;;;2.57;1.10;;;23.40;99.90;;;;;;4995715;28;20589;-75
2021/06/22 11:29:15;;;;;;;4.03;1.70;;;23.30;99.90;;;;;;5018897;28;20566;-77
2021/06/22 11:31:43;;;;;;;2.07;1.27;;;23.20;99.70;;;;;;5003217;28;20204;-76
2021/06/22 11:34:17;;;;;;;2.23;1.40;;;23.10;99.90;;;;;;4997337;28;20581;-75
2021/06/22 11:36:54;;;;;;;3.60;1.40;;;22.90;99.70;;;;;;5011505;28;20957;-75
2021/06/22 11:39:22;;;;;;;2.60;1.53;;;22.80;98.50;;;;;;5013771;28;20990;-76
2021/06/22 11:42:07;;;;;;;2.40;1.20;;;22.80;99.60;;;;;;4998592;28;20633;-76
2021/06/22 11:44:44;;;;;;;3.00;1.30;;;22.60;99.80;;;;;;5011703;28;20589;-75
2021/06/22 11:47:26;;;;;;;2.20;1.17;;;22.50;99.80;;;;;;5012958;28;20580;-75
2021/06/22 11:49:53;;;;;;;3.20;2.00;;;22.40;99.90;;;;;;5010249;28;20584;-74
2021/06/22 11:52:22;;;;;;;3.17;1.67;;;22.30;99.90;;;;;;4977504;28;20609;-75
2021/06/22 11:54:56;;;;;;;2.60;1.27;;;22.10;99.90;;;;;;5012473;28;20911;-76
2021/06/22 11:57:29;;;;;;;2.33;1.80;;;22.00;99.90;;;;;;5017770;28;20583;-76
2021/06/22 12:00:11;;;;;;;3.13;1.77;;;21.80;99.90;;;;;;5031300;28;21034;-76
2021/06/22 12:03:21;;;;;;;3.97;1.70;;;21.60;99.90;;;;;;5036550;28;20584;-76
2021/06/22 12:05:48;;;;;;;2.43;1.67;;;21.40;99.90;;;;;;5035222;28;20715;-76
2021/06/22 12:08:15;;;;;;;4.43;1.87;;;21.30;99.90;;;;;;4999757;28;20592;-77
2021/06/22 12:10:47;;;;;;;2.87;1.50;;;21.30;99.90;;;;;;5032942;28;20982;-76
2021/06/22 12:13:27;;;;;;;2.80;2.33;;;21.20;99.90;;;;;;5032074;28;20576;-75
2021/06/22 12:15:53;;;;;;;2.57;1.73;;;21.10;99.90;;;;;;5015298;28;21278;-75
2021/06/22 12:18:24;;;;;;;5.13;2.20;;;20.90;99.90;;;;;;5030724;28;20731;-75
2021/06/22 12:20:51;;;;;;;2.33;1.80;;;20.80;99.90;;;;;;5029432;28;20581;-76
2021/06/22 12:23:18;;;;;;;2.93;1.57;;;20.80;99.90;;;;;;5030129;28;20579;-75
2021/06/22 12:25:51;;;;;;;3.27;2.00;;;20.80;99.90;;;;;;5042037;28;20662;-76
2021/06/22 12:28:22;;;;;;;2.13;1.67;;;20.90;99.90;;;;;;5030349;28;20587;-76
2021/06/22 12:30:58;;;;;;;3.67;1.90;;;20.90;99.90;;;;;;5048241;28;20624;-77
2021/06/22 12:33:27;;;;;;;5.13;2.20;;;21.00;99.90;;;;;;5043045;28;20591;-76
2021/06/22 12:35:58;;;;;;;2.80;1.67;;;21.00;99.90;;;;;;5006194;28;20944;-75
2021/06/22 12:38:25;;;;;;;2.50;1.53;;;21.00;99.90;;;;;;5048129;28;20572;-76
2021/06/22 12:41:02;;;;;;;3.30;1.60;;;21.10;99.90;;;;;;5030028;28;20647;-77
2021/06/22 12:43:48;;;;;;;2.30;1.57;;;21.10;99.90;;;;;;5052845;28;20602;-77
2021/06/22 12:46:21;;;;;;;2.43;1.90;;;21.10;99.90;;;;;;5035416;28;21172;-77
2021/06/22 12:48:49;;;;;;;3.53;1.60;;;21.20;99.90;;;;;;5045400;28;20603;-76
2021/06/22 12:51:16;;;;;;;2.97;1.63;;;21.20;99.90;;;;;;5026271;28;20615;-75
2021/06/22 12:53:49;;;;;;;1.60;1.30;;;21.20;99.90;;;;;;5030857;28;20603;-75
2021/06/22 12:56:22;;;;;;;3.40;1.70;;;21.10;99.90;;;;;;5024344;28;20577;-76
2021/06/22 12:58:51;;;;;;;2.07;1.87;;;21.10;99.90;;;;;;5030816;28;20585;-76
2021/06/22 13:01:42;;;;;;;2.60;1.90;;;21.00;99.90;;;;;;5027823;28;21464;-76